Time;durP1;ratioP1;P1;durP2;ratioP2;P2;SDS_P1;SDS_P2;PMS_P1;PMS_P2;Temp;Humidity;BMP_temperature;BMP_pressure;BME280_temperature;BME280_humidity;BME280_pressure;Samples;Min_cycle;Max_cycle;Signal;HPM_P1;HPM_P2
2023/09/03 00:01:11;;;;;;;12.65;11.35;;;;;;;;;;5050740;28;20376;-75
2023/09/03 00:03:38;;;;;;;12.63;11.35;;;;;;;;;;5049428;28;20056;-76
2023/09/03 00:06:04;;;;;;;12.30;11.00;;;;;;;;;;5055771;28;20044;-76
2023/09/03 00:08:30;;;;;;;12.95;10.98;;;;;;;;;;5045757;28;20065;-75
2023/09/03 00:10:56;;;;;;;12.68;11.32;;;;;;;;;;5036423;28;20068;-76
2023/09/03 00:13:22;;;;;;;13.18;11.77;;;;;;;;;;5053366;28;20045;-76
2023/09/03 00:15:48;;;;;;;13.90;11.48;;;;;;;;;;5043347;28;20187;-76
2023/09/03 00:18:14;;;;;;;13.00;11.48;;;;;;;;;;5039756;28;20040;-76
2023/09/03 00:20:41;;;;;;;12.07;10.77;;;;;;;;;;5057092;28;20113;-76
2023/09/03 00:23:09;;;;;;;12.25;10.63;;;;;;;;;;5074373;28;20396;-76
2023/09/03 00:25:38;;;;;;;11.57;10.38;;;;;;;;;;5051158;28;20152;-76
2023/09/03 00:28:04;;;;;;;12.52;10.32;;;;;;;;;;5061505;28;20115;-76
2023/09/03 00:30:30;;;;;;;11.45;10.35;;;;;;;;;;5061984;28;20506;-76
2023/09/03 00:32:56;;;;;;;14.57;10.07;;;;;;;;;;5059959;28;20119;-76
2023/09/03 00:35:22;;;;;;;11.65;9.65;;;;;;;;;;5070783;28;20093;-76
2023/09/03 00:37:48;;;;;;;10.93;9.70;;;;;;;;;;5059845;28;20151;-76
2023/09/03 00:40:14;;;;;;;10.50;9.38;;;;;;;;;;5061188;28;20045;-76
2023/09/03 00:42:40;;;;;;;11.75;9.85;;;;;;;;;;5055749;28;20100;-76
2023/09/03 00:45:07;;;;;;;12.27;10.55;;;;;;;;;;5045139;28;20044;-75
2023/09/03 00:47:33;;;;;;;12.15;10.88;;;;;;;;;;5074754;28;20087;-76
2023/09/03 00:49:59;;;;;;;13.15;11.00;;;;;;;;;;5061575;28;20391;-76
2023/09/03 00:52:26;;;;;;;12.88;10.70;;;;;;;;;;5055834;28;20489;-76
2023/09/03 00:54:53;;;;;;;12.70;10.70;;;;;;;;;;5068092;28;20162;-76
2023/09/03 00:57:19;;;;;;;12.52;11.23;;;;;;;;;;5042963;28;20076;-76
2023/09/03 00:59:46;;;;;;;13.38;11.18;;;;;;;;;;5045981;28;20583;-75
2023/09/03 01:02:13;;;;;;;12.40;10.65;;;;;;;;;;5037399;28;20055;-75
2023/09/03 01:04:39;;;;;;;13.10;11.80;;;;;;;;;;5062062;28;20793;-75
2023/09/03 01:07:06;;;;;;;14.43;12.38;;;;;;;;;;5043989;28;20053;-75
2023/09/03 01:09:32;;;;;;;12.75;11.32;;;;;;;;;;5041661;28;20048;-76
2023/09/03 01:12:05;;;;;;;14.30;11.13;;;;;;;;;;5051155;28;20052;-76
2023/09/03 01:14:31;;;;;;;15.05;11.38;;;;;;;;;;5058994;28;20037;-76
2023/09/03 01:17:07;;;;;;;12.48;11.18;;;;;;;;;;5044693;28;20101;-76
2023/09/03 01:19:34;;;;;;;13.43;11.43;;;;;;;;;;5077082;28;20048;-76
2023/09/03 01:22:19;;;;;;;12.00;10.50;;;;;;;;;;5039302;28;20048;-76
2023/09/03 01:24:58;;;;;;;11.48;10.27;;;;;;;;;;5038879;28;20072;-76
2023/09/03 01:27:30;;;;;;;12.88;10.65;;;;;;;;;;5043061;28;20052;-76
2023/09/03 01:29:56;;;;;;;11.35;9.90;;;;;;;;;;5044643;28;20039;-76
2023/09/03 01:32:23;;;;;;;12.13;9.88;;;;;;;;;;5063970;28;20124;-76
2023/09/03 01:34:50;;;;;;;12.75;9.35;;;;;;;;;;5056452;28;20064;-76
2023/09/03 01:37:16;;;;;;;12.32;9.50;;;;;;;;;;5093286;28;20075;-76
2023/09/03 01:39:42;;;;;;;10.68;9.20;;;;;;;;;;5077131;28;20095;-76
2023/09/03 01:42:08;;;;;;;12.52;9.48;;;;;;;;;;5073291;28;20045;-76
2023/09/03 01:44:34;;;;;;;10.13;9.13;;;;;;;;;;5052474;28;20053;-76
2023/09/03 01:47:09;;;;;;;11.73;9.00;;;;;;;;;;5077081;28;20040;-76
2023/09/03 01:49:40;;;;;;;9.80;8.80;;;;;;;;;;5086292;28;20043;-76
2023/09/03 01:52:12;;;;;;;9.80;8.75;;;;;;;;;;5060265;28;20485;-75
2023/09/03 01:54:40;;;;;;;11.02;9.70;;;;;;;;;;5056200;28;20548;-76
2023/09/03 01:57:17;;;;;;;11.38;10.02;;;;;;;;;;5067245;28;20053;-76
2023/09/03 01:59:44;;;;;;;9.98;8.98;;;;;;;;;;5043145;28;20037;-76
2023/09/03 02:02:14;;;;;;;12.00;9.82;;;;;;;;;;5062336;28;20064;-76
2023/09/03 02:04:40;;;;;;;13.35;9.35;;;;;;;;;;5056139;28;20106;-76
2023/09/03 02:07:06;;;;;;;9.75;8.75;;;;;;;;;;5050204;28;20052;-76
2023/09/03 02:09:33;;;;;;;10.52;9.43;;;;;;;;;;5045402;28;20159;-76
2023/09/03 02:11:59;;;;;;;13.40;9.68;;;;;;;;;;5053553;28;20048;-76
2023/09/03 02:14:26;;;;;;;10.05;9.05;;;;;;;;;;5040809;28;20502;-76
2023/09/03 02:16:52;;;;;;;10.00;8.73;;;;;;;;;;5076618;28;20483;-75
2023/09/03 02:19:18;;;;;;;12.23;9.27;;;;;;;;;;5068410;28;20044;-76
2023/09/03 02:21:44;;;;;;;11.27;9.60;;;;;;;;;;5056893;28;20052;-75
2023/09/03 02:24:11;;;;;;;11.50;9.57;;;;;;;;;;5043995;28;20435;-75
2023/09/03 02:26:43;;;;;;;12.65;9.80;;;;;;;;;;5064188;28;20056;-75
2023/09/03 02:29:10;;;;;;;12.75;9.88;;;;;;;;;;5042435;28;20429;-76
2023/09/03 02:31:36;;;;;;;11.20;9.95;;;;;;;;;;5045547;28;20048;-76
2023/09/03 02:34:03;;;;;;;12.27;9.30;;;;;;;;;;5061318;28;20033;-76
2023/09/03 02:36:30;;;;;;;11.27;9.63;;;;;;;;;;5063807;28;20059;-76
2023/09/03 02:39:00;;;;;;;14.10;9.65;;;;;;;;;;5034552;28;20167;-76
2023/09/03 02:41:27;;;;;;;15.00;10.10;;;;;;;;;;5061106;28;20055;-76
2023/09/03 02:43:53;;;;;;;10.40;9.27;;;;;;;;;;5044859;28;20048;-76
2023/09/03 02:46:20;;;;;;;13.80;9.55;;;;;;;;;;5059284;28;20053;-76
2023/09/03 02:48:46;;;;;;;10.70;9.27;;;;;;;;;;5060375;28;20155;-76
2023/09/03 02:51:12;;;;;;;12.55;9.32;;;;;;;;;;5045050;28;20131;-76
2023/09/03 02:53:41;;;;;;;11.10;10.00;;;;;;;;;;5064495;28;20496;-76
2023/09/03 02:56:07;;;;;;;12.70;10.07;;;;;;;;;;5056983;28;20048;-76
2023/09/03 02:58:33;;;;;;;11.20;9.52;;;;;;;;;;5065168;28;20099;-76
2023/09/03 03:01:04;;;;;;;11.63;10.00;;;;;;;;;;5050106;28;20486;-76
2023/09/03 03:03:30;;;;;;;13.82;9.82;;;;;;;;;;5047131;28;20186;-76
2023/09/03 03:05:56;;;;;;;11.07;9.88;;;;;;;;;;5062094;28;20048;-75
2023/09/03 03:08:22;;;;;;;12.60;9.90;;;;;;;;;;5052112;28;20051;-75
2023/09/03 03:10:48;;;;;;;14.10;10.23;;;;;;;;;;5048237;28;20418;-75
2023/09/03 03:13:14;;;;;;;10.63;9.30;;;;;;;;;;5040228;28;20040;-76
2023/09/03 03:15:40;;;;;;;14.23;9.10;;;;;;;;;;5056338;28;20045;-76
2023/09/03 03:18:06;;;;;;;9.90;8.77;;;;;;;;;;5039289;28;20040;-76
2023/09/03 03:20:32;;;;;;;9.90;8.88;;;;;;;;;;5057339;28;20130;-75
2023/09/03 03:22:58;;;;;;;9.98;7.97;;;;;;;;;;5043335;28;20051;-76
2023/09/03 03:25:24;;;;;;;8.80;7.90;;;;;;;;;;5043697;28;20044;-76
2023/09/03 03:27:50;;;;;;;11.93;9.80;;;;;;;;;;5059197;28;20055;-76
2023/09/03 03:30:16;;;;;;;10.07;8.75;;;;;;;;;;5068569;28;20097;-76
2023/09/03 03:32:42;;;;;;;11.05;8.88;;;;;;;;;;5044781;28;20113;-76
2023/09/03 03:35:09;;;;;;;9.82;8.20;;;;;;;;;;5037269;28;20048;-76
2023/09/03 03:37:35;;;;;;;8.70;7.80;;;;;;;;;;5048278;28;20067;-76
2023/09/03 03:40:01;;;;;;;10.55;9.40;;;;;;;;;;5064636;28;20493;-75
2023/09/03 03:42:27;;;;;;;12.23;8.93;;;;;;;;;;5057977;28;20047;-76
2023/09/03 03:44:53;;;;;;;9.68;8.63;;;;;;;;;;5059590;28;20044;-76
2023/09/03 03:47:19;;;;;;;11.52;8.52;;;;;;;;;;5059663;28;20049;-76
2023/09/03 03:49:45;;;;;;;13.27;8.85;;;;;;;;;;5038251;28;20074;-76
2023/09/03 03:52:11;;;;;;;10.25;9.15;;;;;;;;;;5068255;28;20039;-76
2023/09/03 03:54:37;;;;;;;12.70;9.45;;;;;;;;;;5041662;28;20036;-76
2023/09/03 03:57:03;;;;;;;10.93;8.75;;;;;;;;;;5066383;28;20036;-76
2023/09/03 03:59:30;;;;;;;10.60;8.57;;;;;;;;;;5062618;28;20494;-76
2023/09/03 04:01:56;;;;;;;10.88;9.23;;;;;;;;;;5069512;28;20036;-76
2023/09/03 04:04:22;;;;;;;11.43;9.93;;;;;;;;;;5046767;28;20560;-75
2023/09/03 04:06:48;;;;;;;10.65;9.55;;;;;;;;;;5059427;28;20055;-76
2023/09/03 04:09:14;;;;;;;10.05;8.98;;;;;;;;;;5069497;28;20124;-76
2023/09/03 04:11:40;;;;;;;12.65;10.65;;;;;;;;;;5059874;28;20127;-76
2023/09/03 04:14:06;;;;;;;13.77;10.35;;;;;;;;;;5046606;28;20045;-76
2023/09/03 04:16:32;;;;;;;12.00;10.70;;;;;;;;;;5069853;28;20043;-75
2023/09/03 04:18:58;;;;;;;12.00;10.13;;;;;;;;;;5049889;28;20048;-76
2023/09/03 04:21:24;;;;;;;13.40;10.48;;;;;;;;;;5067260;28;20052;-75
2023/09/03 04:23:50;;;;;;;12.88;11.10;;;;;;;;;;5046300;28;20488;-75
2023/09/03 04:26:16;;;;;;;11.77;10.40;;;;;;;;;;5046400;28;20055;-75
2023/09/03 04:28:43;;;;;;;12.15;10.88;;;;;;;;;;5056679;28;23031;-76
2023/09/03 04:31:10;;;;;;;13.35;11.35;;;;;;;;;;5051332;28;20403;-76
2023/09/03 04:33:36;;;;;;;12.57;10.77;;;;;;;;;;5051381;28;20107;-76
2023/09/03 04:36:03;;;;;;;13.30;11.27;;;;;;;;;;5050046;28;20059;-76
2023/09/03 04:38:29;;;;;;;12.07;10.15;;;;;;;;;;5050143;28;20045;-76
2023/09/03 04:41:03;;;;;;;11.77;10.35;;;;;;;;;;5053185;28;20041;-76
2023/09/03 04:43:29;;;;;;;11.27;9.88;;;;;;;;;;5038015;28;20064;-76
2023/09/03 04:45:55;;;;;;;11.02;9.77;;;;;;;;;;5050370;28;20131;-76
2023/09/03 04:48:21;;;;;;;13.02;10.23;;;;;;;;;;5046483;28;20045;-76
2023/09/03 04:50:48;;;;;;;11.25;10.10;;;;;;;;;;5068960;28;20044;-76
2023/09/03 04:53:14;;;;;;;11.25;10.15;;;;;;;;;;5065993;28;20044;-76
2023/09/03 04:55:40;;;;;;;11.02;9.82;;;;;;;;;;5051671;28;20076;-76
2023/09/03 04:58:06;;;;;;;12.10;10.95;;;;;;;;;;5051428;28;20047;-76
2023/09/03 05:00:33;;;;;;;13.85;10.88;;;;;;;;;;5060068;28;20045;-76
2023/09/03 05:02:59;;;;;;;13.05;10.82;;;;;;;;;;5075778;28;20051;-75
2023/09/03 05:05:25;;;;;;;12.02;10.20;;;;;;;;;;5063159;28;20057;-76
2023/09/03 05:07:51;;;;;;;12.18;10.88;;;;;;;;;;5081746;28;20064;-75
2023/09/03 05:10:18;;;;;;;12.20;10.35;;;;;;;;;;5066697;28;20045;-76
2023/09/03 05:12:44;;;;;;;11.93;10.45;;;;;;;;;;5077104;28;20058;-76
2023/09/03 05:15:13;;;;;;;13.65;10.52;;;;;;;;;;5066842;28;20033;-76
2023/09/03 05:17:40;;;;;;;12.85;10.55;;;;;;;;;;5071379;28;20040;-75
2023/09/03 05:20:08;;;;;;;10.95;9.60;;;;;;;;;;5056165;28;20041;-76
2023/09/03 05:22:35;;;;;;;14.05;10.32;;;;;;;;;;5067027;28;20052;-76
2023/09/03 05:25:01;;;;;;;14.88;11.90;;;;;;;;;;5081431;28;20049;-76
2023/09/03 05:27:30;;;;;;;11.43;10.23;;;;;;;;;;5064092;28;20399;-76
2023/09/03 05:29:59;;;;;;;12.38;10.68;;;;;;;;;;5066696;28;20040;-76
2023/09/03 05:32:25;;;;;;;12.30;10.68;;;;;;;;;;5058497;28;20802;-76
2023/09/03 05:34:51;;;;;;;13.80;11.15;;;;;;;;;;5060638;28;20523;-76
2023/09/03 05:37:17;;;;;;;12.00;10.63;;;;;;;;;;5051046;28;20041;-75
2023/09/03 05:39:43;;;;;;;12.10;10.80;;;;;;;;;;5058328;28;20098;-76
2023/09/03 05:42:09;;;;;;;12.32;10.63;;;;;;;;;;5057986;28;20048;-76
2023/09/03 05:44:35;;;;;;;11.05;9.93;;;;;;;;;;5055044;28;20052;-76
2023/09/03 05:47:01;;;;;;;12.60;10.75;;;;;;;;;;5080659;28;20048;-76
2023/09/03 05:49:27;;;;;;;14.07;12.05;;;;;;;;;;5075399;28;21276;-76
2023/09/03 05:51:53;;;;;;;13.95;11.75;;;;;;;;;;5055569;28;20052;-76
2023/09/03 05:54:19;;;;;;;12.63;11.32;;;;;;;;;;5041029;28;20046;-76
2023/09/03 05:56:45;;;;;;;12.32;11.05;;;;;;;;;;5048519;28;20045;-76
2023/09/03 05:59:13;;;;;;;13.10;10.45;;;;;;;;;;5073525;28;20041;-76
2023/09/03 06:01:39;;;;;;;11.70;10.43;;;;;;;;;;5048262;28;20128;-76
2023/09/03 06:04:07;;;;;;;11.02;10.00;;;;;;;;;;5063050;28;20053;-76
2023/09/03 06:06:39;;;;;;;11.55;10.35;;;;;;;;;;5035650;28;20061;-75
2023/09/03 06:09:06;;;;;;;13.00;11.57;;;;;;;;;;5069691;28;20045;-76
2023/09/03 06:11:36;;;;;;;13.35;11.38;;;;;;;;;;5046226;28;20048;-76
2023/09/03 06:14:02;;;;;;;14.05;11.82;;;;;;;;;;5055538;28;20033;-76
2023/09/03 06:16:28;;;;;;;13.55;10.93;;;;;;;;;;5047618;28;20109;-76
2023/09/03 06:18:54;;;;;;;14.57;10.80;;;;;;;;;;5068423;28;20041;-76
2023/09/03 06:21:24;;;;;;;12.18;10.43;;;;;;;;;;5063259;28;20091;-76
2023/09/03 06:23:50;;;;;;;12.90;11.50;;;;;;;;;;5041426;28;20159;-76
2023/09/03 06:26:16;;;;;;;11.48;10.38;;;;;;;;;;5039523;28;20127;-76
2023/09/03 06:28:42;;;;;;;12.82;11.50;;;;;;;;;;5044815;28;20461;-76
2023/09/03 06:31:08;;;;;;;12.10;10.90;;;;;;;;;;5072174;28;20127;-75
2023/09/03 06:33:34;;;;;;;15.13;11.90;;;;;;;;;;5079276;28;20048;-76
2023/09/03 06:36:00;;;;;;;14.07;11.45;;;;;;;;;;5069462;28;20388;-76
2023/09/03 06:38:26;;;;;;;15.05;11.45;;;;;;;;;;5069763;28;20055;-76
2023/09/03 06:40:52;;;;;;;14.85;9.95;;;;;;;;;;5045717;28;20132;-76
2023/09/03 06:43:18;;;;;;;11.98;10.77;;;;;;;;;;5056441;28;20442;-75
2023/09/03 06:45:44;;;;;;;11.90;10.38;;;;;;;;;;5061748;28;20080;-76
2023/09/03 06:48:10;;;;;;;13.15;11.43;;;;;;;;;;5067253;28;20045;-76
2023/09/03 06:50:36;;;;;;;12.35;10.77;;;;;;;;;;5059565;28;20515;-76
2023/09/03 06:53:02;;;;;;;13.52;12.13;;;;;;;;;;5043914;28;20041;-76
2023/09/03 06:55:28;;;;;;;13.18;11.57;;;;;;;;;;5063435;28;20496;-76
2023/09/03 06:57:54;;;;;;;14.35;11.88;;;;;;;;;;5049713;28;20048;-76
2023/09/03 07:00:20;;;;;;;17.95;12.05;;;;;;;;;;5062628;28;20048;-76
2023/09/03 07:02:47;;;;;;;14.20;12.02;;;;;;;;;;5047644;28;20506;-76
2023/09/03 07:05:14;;;;;;;14.25;11.93;;;;;;;;;;5065550;28;20148;-76
2023/09/03 07:07:40;;;;;;;15.23;11.80;;;;;;;;;;5063929;28;20594;-75
2023/09/03 07:10:06;;;;;;;14.20;12.13;;;;;;;;;;5075727;28;20508;-75
2023/09/03 07:12:35;;;;;;;15.45;12.15;;;;;;;;;;5035614;28;20033;-76
2023/09/03 07:15:01;;;;;;;13.50;11.57;;;;;;;;;;5079645;28;20047;-76
2023/09/03 07:17:27;;;;;;;13.38;11.95;;;;;;;;;;5061268;28;20498;-76
2023/09/03 07:19:54;;;;;;;13.10;11.73;;;;;;;;;;5059940;28;20132;-76
2023/09/03 07:22:21;;;;;;;12.77;10.95;;;;;;;;;;5042358;28;20055;-76
2023/09/03 07:24:47;;;;;;;12.45;10.70;;;;;;;;;;5074477;28;20073;-76
2023/09/03 07:27:13;;;;;;;15.40;10.77;;;;;;;;;;5058229;28;20436;-75
2023/09/03 07:29:39;;;;;;;13.63;11.52;;;;;;;;;;5058929;28;20786;-76
2023/09/03 07:32:05;;;;;;;14.52;11.10;;;;;;;;;;5042578;28;20059;-76
2023/09/03 07:34:31;;;;;;;12.95;11.40;;;;;;;;;;5065359;28;20404;-76
2023/09/03 07:36:57;;;;;;;14.75;10.27;;;;;;;;;;5073140;28;20517;-76
2023/09/03 07:39:23;;;;;;;12.55;9.02;;;;;;;;;;5042825;28;20080;-75
2023/09/03 07:41:49;;;;;;;12.30;8.98;;;;;;;;;;5052571;28;20052;-76
2023/09/03 07:44:15;;;;;;;8.63;7.78;;;;;;;;;;5068570;28;20049;-76
2023/09/03 07:46:41;;;;;;;11.02;8.38;;;;;;;;;;5059320;28;20049;-76
2023/09/03 07:49:07;;;;;;;11.07;7.78;;;;;;;;;;5051933;28;20043;-76
2023/09/03 07:51:33;;;;;;;10.00;7.18;;;;;;;;;;5040173;28;20492;-75
2023/09/03 07:53:59;;;;;;;8.88;6.95;;;;;;;;;;5046382;28;20056;-76
2023/09/03 07:56:25;;;;;;;7.38;6.38;;;;;;;;;;5070848;28;20100;-77
2023/09/03 07:58:51;;;;;;;8.63;6.38;;;;;;;;;;5059942;28;20052;-77
2023/09/03 08:01:19;;;;;;;7.13;5.93;;;;;;;;;;5066674;28;20055;-76
2023/09/03 08:03:45;;;;;;;7.20;5.88;;;;;;;;;;5068289;28;20518;-75
2023/09/03 08:06:13;;;;;;;10.02;6.20;;;;;;;;;;5046061;28;20047;-75
2023/09/03 08:08:39;;;;;;;10.88;5.57;;;;;;;;;;5051765;28;20178;-74
2023/09/03 08:11:05;;;;;;;7.18;5.45;;;;;;;;;;5053450;28;21526;-75
2023/09/03 08:13:31;;;;;;;8.63;5.00;;;;;;;;;;5060723;28;20111;-76
2023/09/03 08:15:57;;;;;;;9.20;6.10;;;;;;;;;;5043633;28;20051;-75
2023/09/03 08:18:23;;;;;;;7.88;5.35;;;;;;;;;;5055687;28;20049;-74
2023/09/03 08:20:50;;;;;;;6.65;5.22;;;;;;;;;;5066846;28;20072;-75
2023/09/03 08:23:16;;;;;;;7.53;5.05;;;;;;;;;;5056970;28;20495;-75
2023/09/03 08:25:42;;;;;;;18.35;11.63;;;;;;;;;;5042613;28;20080;-75
2023/09/03 08:28:09;;;;;;;11.07;4.90;;;;;;;;;;5038986;28;20137;-75
2023/09/03 08:30:35;;;;;;;8.02;5.03;;;;;;;;;;5037676;28;20095;-75
2023/09/03 08:33:01;;;;;;;6.10;4.82;;;;;;;;;;5042136;28;20044;-75
2023/09/03 08:35:28;;;;;;;6.75;4.70;;;;;;;;;;5036983;28;20076;-76
2023/09/03 08:37:54;;;;;;;6.38;4.90;;;;;;;;;;5039259;28;20056;-75
2023/09/03 08:40:20;;;;;;;6.55;5.20;;;;;;;;;;5057959;28;20406;-75
2023/09/03 08:42:47;;;;;;;7.97;5.63;;;;;;;;;;5059313;28;20052;-75
2023/09/03 08:45:14;;;;;;;8.95;4.93;;;;;;;;;;5040050;28;20139;-75
2023/09/03 08:47:41;;;;;;;8.60;5.10;;;;;;;;;;5062065;28;20121;-75
2023/09/03 08:50:14;;;;;;;7.10;4.57;;;;;;;;;;5066895;28;20063;-75
2023/09/03 08:52:40;;;;;;;;;;;;;;;;;;5071009;28;20067;-75
2023/09/03 08:55:07;;;;;;;6.38;5.35;;;;;;;;;;5049408;28;19970;-75
2023/09/03 08:57:34;;;;;;;7.30;4.70;;;;;;;;;;5044733;28;20058;-75
2023/09/03 09:00:07;;;;;;;6.32;4.50;;;;;;;;;;5066045;28;20506;-75
2023/09/03 09:02:33;;;;;;;8.48;4.65;;;;;;;;;;5066133;28;20435;-75
2023/09/03 09:05:00;;;;;;;7.38;4.60;;;;;;;;;;5054396;28;20057;-75
2023/09/03 09:07:26;;;;;;;7.95;3.95;;;;;;;;;;5049480;28;20492;-75
2023/09/03 09:09:53;;;;;;;6.22;4.43;;;;;;;;;;5068914;28;20349;-75
2023/09/03 09:12:27;;;;;;;6.07;4.00;;;;;;;;;;5071608;28;20071;-76
2023/09/03 09:14:54;;;;;;;6.97;3.95;;;;;;;;;;5075586;28;20079;-75
2023/09/03 09:17:20;;;;;;;4.00;3.45;;;;;;;;;;5056645;28;20033;-75
